sensor_id;sensor_type;location;lat;lon;timestamp;pressure;altitude;pressure_sealevel;temperature
61703;BMP280;47622;47.726;3.298;2023-05-10T00:01:57;98919.91;;;11.49
61703;BMP280;47622;47.726;3.298;2023-05-10T00:04:23;98926.34;;;11.43
61703;BMP280;47622;47.726;3.298;2023-05-10T00:06:53;98932.84;;;11.37
61703;BMP280;47622;47.726;3.298;2023-05-10T00:09:18;98930.88;;;11.34
61703;BMP280;47622;47.726;3.298;2023-05-10T00:11:44;98933.63;;;11.29
61703;BMP280;47622;47.726;3.298;2023-05-10T00:14:09;98931.31;;;11.19
61703;BMP280;47622;47.726;3.298;2023-05-10T00:16:36;98927.28;;;11.21
61703;BMP280;47622;47.726;3.298;2023-05-10T00:19:01;98929.78;;;11.18
61703;BMP280;47622;47.726;3.298;2023-05-10T00:21:27;98923.88;;;11.21
61703;BMP280;47622;47.726;3.298;2023-05-10T00:23:54;98932.22;;;11.23
61703;BMP280;47622;47.726;3.298;2023-05-10T00:26:19;98943.00;;;11.13
61703;BMP280;47622;47.726;3.298;2023-05-10T00:28:45;98939.94;;;11.11
61703;BMP280;47622;47.726;3.298;2023-05-10T00:31:11;98939.31;;;11.14
61703;BMP280;47622;47.726;3.298;2023-05-10T00:33:36;98949.84;;;11.22
61703;BMP280;47622;47.726;3.298;2023-05-10T00:36:02;98945.03;;;11.16
61703;BMP280;47622;47.726;3.298;2023-05-10T00:38:28;98940.38;;;11.21
61703;BMP280;47622;47.726;3.298;2023-05-10T00:40:53;98939.63;;;11.21
61703;BMP280;47622;47.726;3.298;2023-05-10T00:43:19;98941.47;;;11.12
61703;BMP280;47622;47.726;3.298;2023-05-10T00:45:45;98937.16;;;11.07
61703;BMP280;47622;47.726;3.298;2023-05-10T00:48:11;98944.09;;;11.12
61703;BMP280;47622;47.726;3.298;2023-05-10T00:50:37;98947.34;;;11.09
61703;BMP280;47622;47.726;3.298;2023-05-10T00:53:03;98946.56;;;11.08
61703;BMP280;47622;47.726;3.298;2023-05-10T00:55:28;98953.16;;;11.06
61703;BMP280;47622;47.726;3.298;2023-05-10T00:57:54;98957.84;;;11.09
61703;BMP280;47622;47.726;3.298;2023-05-10T01:00:20;98951.03;;;11.08
61703;BMP280;47622;47.726;3.298;2023-05-10T01:02:47;98949.00;;;11.05
61703;BMP280;47622;47.726;3.298;2023-05-10T01:05:14;98955.66;;;11.11
61703;BMP280;47622;47.726;3.298;2023-05-10T01:07:40;98956.88;;;11.05
61703;BMP280;47622;47.726;3.298;2023-05-10T01:10:07;98961.34;;;11.04
61703;BMP280;47622;47.726;3.298;2023-05-10T01:12:39;98962.13;;;11.05
61703;BMP280;47622;47.726;3.298;2023-05-10T01:15:07;98959.06;;;11.03
61703;BMP280;47622;47.726;3.298;2023-05-10T01:17:37;98958.72;;;10.95
61703;BMP280;47622;47.726;3.298;2023-05-10T01:20:04;98955.00;;;10.96
61703;BMP280;47622;47.726;3.298;2023-05-10T01:25:39;98966.59;;;10.95
61703;BMP280;47622;47.726;3.298;2023-05-10T01:28:23;98966.72;;;10.90
61703;BMP280;47622;47.726;3.298;2023-05-10T01:33:45;98952.19;;;10.84
61703;BMP280;47622;47.726;3.298;2023-05-10T01:36:32;98953.31;;;10.92
61703;BMP280;47622;47.726;3.298;2023-05-10T01:44:56;98969.22;;;10.95
61703;BMP280;47622;47.726;3.298;2023-05-10T01:47:37;98958.84;;;10.82
61703;BMP280;47622;47.726;3.298;2023-05-10T01:50:08;98961.28;;;10.78
61703;BMP280;47622;47.726;3.298;2023-05-10T01:52:42;98963.47;;;10.85
61703;BMP280;47622;47.726;3.298;2023-05-10T01:55:13;98961.47;;;10.90
61703;BMP280;47622;47.726;3.298;2023-05-10T01:57:42;98968.88;;;10.88
61703;BMP280;47622;47.726;3.298;2023-05-10T02:00:10;98963.91;;;10.78
61703;BMP280;47622;47.726;3.298;2023-05-10T02:02:40;98972.13;;;10.85
61703;BMP280;47622;47.726;3.298;2023-05-10T02:05:08;98963.03;;;10.91
61703;BMP280;47622;47.726;3.298;2023-05-10T02:07:37;98974.75;;;10.94
61703;BMP280;47622;47.726;3.298;2023-05-10T02:10:05;98970.41;;;10.89
61703;BMP280;47622;47.726;3.298;2023-05-10T02:12:35;98970.28;;;10.94
61703;BMP280;47622;47.726;3.298;2023-05-10T02:15:04;98971.97;;;10.90
61703;BMP280;47622;47.726;3.298;2023-05-10T02:17:32;98973.69;;;10.86
61703;BMP280;47622;47.726;3.298;2023-05-10T02:19:59;98969.06;;;10.92
61703;BMP280;47622;47.726;3.298;2023-05-10T02:22:26;98968.28;;;10.91
61703;BMP280;47622;47.726;3.298;2023-05-10T02:24:55;98957.94;;;10.95
61703;BMP280;47622;47.726;3.298;2023-05-10T02:27:21;98967.19;;;10.92
61703;BMP280;47622;47.726;3.298;2023-05-10T02:29:49;98955.78;;;10.97
61703;BMP280;47622;47.726;3.298;2023-05-10T02:32:16;98968.44;;;10.95
61703;BMP280;47622;47.726;3.298;2023-05-10T02:34:43;98973.69;;;10.95
61703;BMP280;47622;47.726;3.298;2023-05-10T02:37:13;98965.16;;;10.89
61703;BMP280;47622;47.726;3.298;2023-05-10T02:39:39;98967.66;;;10.94
61703;BMP280;47622;47.726;3.298;2023-05-10T02:42:13;98971.53;;;10.97
61703;BMP280;47622;47.726;3.298;2023-05-10T02:44:42;98963.97;;;10.95
61703;BMP280;47622;47.726;3.298;2023-05-10T02:47:08;98963.78;;;10.83
61703;BMP280;47622;47.726;3.298;2023-05-10T02:49:34;98963.63;;;10.88
61703;BMP280;47622;47.726;3.298;2023-05-10T02:52:04;98967.34;;;10.87
61703;BMP280;47622;47.726;3.298;2023-05-10T02:54:33;98965.16;;;10.89
61703;BMP280;47622;47.726;3.298;2023-05-10T02:57:04;98967.31;;;10.79
61703;BMP280;47622;47.726;3.298;2023-05-10T02:59:29;98972.25;;;10.80
61703;BMP280;47622;47.726;3.298;2023-05-10T03:01:56;98965.16;;;10.89
61703;BMP280;47622;47.726;3.298;2023-05-10T03:04:21;98972.31;;;10.98
61703;BMP280;47622;47.726;3.298;2023-05-10T03:06:47;98967.16;;;10.84
61703;BMP280;47622;47.726;3.298;2023-05-10T03:09:13;98971.38;;;10.93
61703;BMP280;47622;47.726;3.298;2023-05-10T03:11:55;98972.50;;;11.01
61703;BMP280;47622;47.726;3.298;2023-05-10T03:17:19;98971.84;;;10.95
61703;BMP280;47622;47.726;3.298;2023-05-10T03:19:56;98971.53;;;10.97
61703;BMP280;47622;47.726;3.298;2023-05-10T03:22:44;98966.44;;;11.01
61703;BMP280;47622;47.726;3.298;2023-05-10T03:25:11;98972.31;;;10.98
61703;BMP280;47622;47.726;3.298;2023-05-10T03:27:41;98979.34;;;10.88
61703;BMP280;47622;47.726;3.298;2023-05-10T03:30:10;98971.22;;;10.99
61703;BMP280;47622;47.726;3.298;2023-05-10T03:32:37;98973.06;;;10.98
61703;BMP280;47622;47.726;3.298;2023-05-10T03:35:11;98973.38;;;10.88
61703;BMP280;47622;47.726;3.298;2023-05-10T03:37:38;98975.38;;;11.00
61703;BMP280;47622;47.726;3.298;2023-05-10T03:40:04;98974.47;;;10.95
61703;BMP280;47622;47.726;3.298;2023-05-10T03:42:30;98980.31;;;10.92
61703;BMP280;47622;47.726;3.298;2023-05-10T03:44:55;98968.88;;;10.88
61703;BMP280;47622;47.726;3.298;2023-05-10T03:47:21;98972.91;;;10.94
61703;BMP280;47622;47.726;3.298;2023-05-10T03:49:47;98969.50;;;10.85
61703;BMP280;47622;47.726;3.298;2023-05-10T03:52:12;98969.78;;;10.75
61703;BMP280;47622;47.726;3.298;2023-05-10T03:54:38;98969.16;;;10.78
61703;BMP280;47622;47.726;3.298;2023-05-10T03:57:04;98965.28;;;10.76
61703;BMP280;47622;47.726;3.298;2023-05-10T03:59:29;98964.38;;;10.80
61703;BMP280;47622;47.726;3.298;2023-05-10T04:01:55;98962.94;;;10.74
61703;BMP280;47622;47.726;3.298;2023-05-10T04:04:21;98963.91;;;10.78
61703;BMP280;47622;47.726;3.298;2023-05-10T04:06:47;98965.56;;;10.74
61703;BMP280;47622;47.726;3.298;2023-05-10T04:09:12;98954.19;;;10.79
61703;BMP280;47622;47.726;3.298;2023-05-10T04:11:38;98953.09;;;10.71
61703;BMP280;47622;47.726;3.298;2023-05-10T04:14:04;98954.03;;;10.75
61703;BMP280;47622;47.726;3.298;2023-05-10T04:16:29;98956.16;;;10.73
61703;BMP280;47622;47.726;3.298;2023-05-10T04:18:55;98958.34;;;10.71
61703;BMP280;47622;47.726;3.298;2023-05-10T04:21:21;98955.13;;;10.83
61703;BMP280;47622;47.726;3.298;2023-05-10T04:23:46;98955.44;;;10.81
61703;BMP280;47622;47.726;3.298;2023-05-10T04:26:13;98968.53;;;10.81
61703;BMP280;47622;47.726;3.298;2023-05-10T04:28:39;98961.91;;;10.84
61703;BMP280;47622;47.726;3.298;2023-05-10T04:31:07;98962.19;;;10.74
61703;BMP280;47622;47.726;3.298;2023-05-10T04:33:33;98958.16;;;10.68
61703;BMP280;47622;47.726;3.298;2023-05-10T04:35:59;98973.13;;;10.67
61703;BMP280;47622;47.726;3.298;2023-05-10T04:38:26;98968.47;;;10.64
61703;BMP280;47622;47.726;3.298;2023-05-10T04:40:53;98958.94;;;10.68
61703;BMP280;47622;47.726;3.298;2023-05-10T04:43:20;98955.06;;;10.65
61703;BMP280;47622;47.726;3.298;2023-05-10T04:45:46;98962.63;;;10.67
61703;BMP280;47622;47.726;3.298;2023-05-10T04:48:11;98958.59;;;10.61
61703;BMP280;47622;47.726;3.298;2023-05-10T04:50:38;98961.69;;;10.63
61703;BMP280;47622;47.726;3.298;2023-05-10T04:53:04;98966.22;;;10.71
61703;BMP280;47622;47.726;3.298;2023-05-10T04:55:30;98953.44;;;10.78
61703;BMP280;47622;47.726;3.298;2023-05-10T04:57:56;98953.72;;;10.77
61703;BMP280;47622;47.726;3.298;2023-05-10T05:00:23;98950.59;;;10.66
61703;BMP280;47622;47.726;3.298;2023-05-10T05:02:48;98964.16;;;10.68
61703;BMP280;47622;47.726;3.298;2023-05-10T05:05:14;98962.63;;;10.67
61703;BMP280;47622;47.726;3.298;2023-05-10T05:07:39;98951.41;;;10.75
61703;BMP280;47622;47.726;3.298;2023-05-10T05:10:06;98948.28;;;10.73
61703;BMP280;47622;47.726;3.298;2023-05-10T05:12:32;98962.81;;;10.71
61703;BMP280;47622;47.726;3.298;2023-05-10T05:14:58;98968.78;;;10.54
61703;BMP280;47622;47.726;3.298;2023-05-10T05:17:23;98968.78;;;10.54
61703;BMP280;47622;47.726;3.298;2023-05-10T05:19:49;98964.94;;;10.69
61703;BMP280;47622;47.726;3.298;2023-05-10T05:22:14;98971.63;;;10.83
61703;BMP280;47622;47.726;3.298;2023-05-10T05:24:40;98967.00;;;10.80
61703;BMP280;47622;47.726;3.298;2023-05-10T05:27:05;98965.63;;;10.83
61703;BMP280;47622;47.726;3.298;2023-05-10T05:29:31;98964.38;;;10.80
61703;BMP280;47622;47.726;3.298;2023-05-10T05:31:57;98963.75;;;10.75
61703;BMP280;47622;47.726;3.298;2023-05-10T05:34:23;98964.94;;;10.69
61703;BMP280;47622;47.726;3.298;2023-05-10T05:36:49;98977.78;;;10.70
61703;BMP280;47622;47.726;3.298;2023-05-10T05:39:15;98970.69;;;10.79
61703;BMP280;47622;47.726;3.298;2023-05-10T05:41:41;98975.47;;;10.77
61703;BMP280;47622;47.726;3.298;2023-05-10T05:44:07;98982.38;;;10.73
61703;BMP280;47622;47.726;3.298;2023-05-10T05:46:33;98978.56;;;10.71
61703;BMP280;47622;47.726;3.298;2023-05-10T05:48:58;98989.47;;;10.64
61703;BMP280;47622;47.726;3.298;2023-05-10T05:51:24;98989.75;;;10.54
61703;BMP280;47622;47.726;3.298;2023-05-10T05:53:49;98989.09;;;10.57
61703;BMP280;47622;47.726;3.298;2023-05-10T05:56:15;98989.28;;;10.60
61703;BMP280;47622;47.726;3.298;2023-05-10T05:58:40;98988.22;;;10.61
61703;BMP280;47622;47.726;3.298;2023-05-10T06:01:06;98989.47;;;10.64
61703;BMP280;47622;47.726;3.298;2023-05-10T06:03:32;98995.06;;;10.71
61703;BMP280;47622;47.726;3.298;2023-05-10T06:05:58;99004.72;;;10.62
61703;BMP280;47622;47.726;3.298;2023-05-10T06:08:23;98998.25;;;10.68
61703;BMP280;47622;47.726;3.298;2023-05-10T06:10:49;99006.38;;;10.58
61703;BMP280;47622;47.726;3.298;2023-05-10T06:13:15;98998.88;;;10.65
61703;BMP280;47622;47.726;3.298;2023-05-10T06:15:42;99000.66;;;10.56
61703;BMP280;47622;47.726;3.298;2023-05-10T06:18:08;99008.88;;;10.63
61703;BMP280;47622;47.726;3.298;2023-05-10T06:20:33;99006.38;;;10.58
61703;BMP280;47622;47.726;3.298;2023-05-10T06:22:59;99004.25;;;10.60
61703;BMP280;47622;47.726;3.298;2023-05-10T06:25:24;99006.72;;;10.65
61703;BMP280;47622;47.726;3.298;2023-05-10T06:27:50;99004.63;;;10.76
61703;BMP280;47622;47.726;3.298;2023-05-10T06:30:17;99005.44;;;10.85
61703;BMP280;47622;47.726;3.298;2023-05-10T06:32:42;99006.03;;;10.82
61703;BMP280;47622;47.726;3.298;2023-05-10T06:35:09;99007.59;;;10.83
61703;BMP280;47622;47.726;3.298;2023-05-10T06:37:35;99013.50;;;10.97
61703;BMP280;47622;47.726;3.298;2023-05-10T06:40:00;99013.66;;;11.01
61703;BMP280;47622;47.726;3.298;2023-05-10T06:42:27;99023.22;;;10.96
61703;BMP280;47622;47.726;3.298;2023-05-10T06:44:52;99017.22;;;11.05
61703;BMP280;47622;47.726;3.298;2023-05-10T06:47:18;99015.50;;;10.91
61703;BMP280;47622;47.726;3.298;2023-05-10T06:49:44;99017.31;;;10.82
61703;BMP280;47622;47.726;3.298;2023-05-10T06:52:09;99016.38;;;10.78
61703;BMP280;47622;47.726;3.298;2023-05-10T06:54:35;99016.72;;;10.85
61703;BMP280;47622;47.726;3.298;2023-05-10T06:57:00;99028.47;;;10.96
61703;BMP280;47622;47.726;3.298;2023-05-10T06:59:28;99026.06;;;11.09
61703;BMP280;47622;47.726;3.298;2023-05-10T07:01:53;99023.09;;;11.02
61703;BMP280;47622;47.726;3.298;2023-05-10T07:04:19;99027.28;;;11.03
61703;BMP280;47622;47.726;3.298;2023-05-10T07:06:44;99034.09;;;11.12
61703;BMP280;47622;47.726;3.298;2023-05-10T07:09:11;99023.47;;;11.17
61703;BMP280;47622;47.726;3.298;2023-05-10T07:11:37;99032.47;;;11.34
61703;BMP280;47622;47.726;3.298;2023-05-10T07:14:02;99033.25;;;11.34
61703;BMP280;47622;47.726;3.298;2023-05-10T07:16:28;99039.47;;;11.07
61703;BMP280;47622;47.726;3.298;2023-05-10T07:18:54;99029.97;;;11.29
61703;BMP280;47622;47.726;3.298;2023-05-10T07:21:19;99033.25;;;11.51
61703;BMP280;47622;47.726;3.298;2023-05-10T07:23:45;99032.94;;;11.44
61703;BMP280;47622;47.726;3.298;2023-05-10T07:26:10;99037.22;;;11.23
61703;BMP280;47622;47.726;3.298;2023-05-10T07:28:38;99047.44;;;11.33
61703;BMP280;47622;47.726;3.298;2023-05-10T07:31:04;99044.69;;;11.55
61703;BMP280;47622;47.726;3.298;2023-05-10T07:33:32;99044.38;;;11.66
61703;BMP280;47622;47.726;3.298;2023-05-10T07:35:58;99035.59;;;11.62
61703;BMP280;47622;47.726;3.298;2023-05-10T07:38:23;99047.75;;;11.57
61703;BMP280;47622;47.726;3.298;2023-05-10T07:40:49;99053.00;;;11.40
61703;BMP280;47622;47.726;3.298;2023-05-10T07:43:14;99047.75;;;11.40
61703;BMP280;47622;47.726;3.298;2023-05-10T07:45:40;99044.22;;;11.45
61703;BMP280;47622;47.726;3.298;2023-05-10T07:48:05;99041.13;;;11.51
61703;BMP280;47622;47.726;3.298;2023-05-10T07:50:31;99044.38;;;11.66
61703;BMP280;47622;47.726;3.298;2023-05-10T07:52:58;99045.66;;;11.77
61703;BMP280;47622;47.726;3.298;2023-05-10T07:55:23;99046.41;;;12.03
61703;BMP280;47622;47.726;3.298;2023-05-10T07:57:49;99044.06;;;12.10
61703;BMP280;47622;47.726;3.298;2023-05-10T08:00:17;99046.84;;;12.23
61703;BMP280;47622;47.726;3.298;2023-05-10T08:02:43;99054.28;;;11.86
61703;BMP280;47622;47.726;3.298;2023-05-10T08:05:09;99055.69;;;11.83
61703;BMP280;47622;47.726;3.298;2023-05-10T08:07:35;99062.50;;;11.76
61703;BMP280;47622;47.726;3.298;2023-05-10T08:10:01;99052.28;;;11.66
61703;BMP280;47622;47.726;3.298;2023-05-10T08:12:27;99063.25;;;11.85
61703;BMP280;47622;47.726;3.298;2023-05-10T08:14:52;99060.16;;;11.83
61703;BMP280;47622;47.726;3.298;2023-05-10T08:17:18;99062.81;;;11.92
61703;BMP280;47622;47.726;3.298;2023-05-10T08:19:43;99051.66;;;11.86
61703;BMP280;47622;47.726;3.298;2023-05-10T08:22:09;99049.34;;;11.76
61703;BMP280;47622;47.726;3.298;2023-05-10T08:24:35;99051.81;;;11.81
61703;BMP280;47622;47.726;3.298;2023-05-10T08:27:05;99053.38;;;12.08
61703;BMP280;47622;47.726;3.298;2023-05-10T08:29:31;99050.88;;;12.11
61703;BMP280;47622;47.726;3.298;2023-05-10T08:31:58;99049.03;;;12.21
61703;BMP280;47622;47.726;3.298;2023-05-10T08:34:23;99059.50;;;12.38
61703;BMP280;47622;47.726;3.298;2023-05-10T08:36:49;99063.56;;;12.27
61703;BMP280;47622;47.726;3.298;2023-05-10T08:39:14;99066.06;;;11.97
61703;BMP280;47622;47.726;3.298;2023-05-10T08:41:44;99057.53;;;11.83
61703;BMP280;47622;47.726;3.298;2023-05-10T08:44:09;99062.19;;;11.86
61703;BMP280;47622;47.726;3.298;2023-05-10T08:46:37;99068.13;;;11.43
61703;BMP280;47622;47.726;3.298;2023-05-10T08:49:06;99070.00;;;11.51
61703;BMP280;47622;47.726;3.298;2023-05-10T08:51:36;99070.19;;;11.55
61703;BMP280;47622;47.726;3.298;2023-05-10T08:54:03;99073.59;;;11.64
61703;BMP280;47622;47.726;3.298;2023-05-10T08:56:29;99078.19;;;11.58
61703;BMP280;47622;47.726;3.298;2023-05-10T08:58:55;99071.38;;;11.40
61703;BMP280;47622;47.726;3.298;2023-05-10T09:01:21;99076.91;;;11.30
61703;BMP280;47622;47.726;3.298;2023-05-10T09:03:49;99082.97;;;11.39
61703;BMP280;47622;47.726;3.298;2023-05-10T09:06:15;99087.31;;;11.52
61703;BMP280;47622;47.726;3.298;2023-05-10T09:08:42;99084.06;;;11.47
61703;BMP280;47622;47.726;3.298;2023-05-10T09:11:08;99091.47;;;11.53
61703;BMP280;47622;47.726;3.298;2023-05-10T09:13:35;99086.56;;;11.69
61703;BMP280;47622;47.726;3.298;2023-05-10T09:16:04;99095.28;;;11.87
61703;BMP280;47622;47.726;3.298;2023-05-10T09:18:30;99086.47;;;12.00
61703;BMP280;47622;47.726;3.298;2023-05-10T09:20:56;99091.72;;;12.00
61703;BMP280;47622;47.726;3.298;2023-05-10T09:23:21;99087.84;;;11.98
61703;BMP280;47622;47.726;3.298;2023-05-10T09:25:47;99088.28;;;11.91
61703;BMP280;47622;47.726;3.298;2023-05-10T09:28:12;99092.34;;;12.14
61703;BMP280;47622;47.726;3.298;2023-05-10T09:30:38;99085.34;;;12.10
61703;BMP280;47622;47.726;3.298;2023-05-10T09:33:04;99092.03;;;12.07
61703;BMP280;47622;47.726;3.298;2023-05-10T09:35:31;99099.75;;;12.21
61703;BMP280;47622;47.726;3.298;2023-05-10T09:38:01;99100.66;;;12.42
61703;BMP280;47622;47.726;3.298;2023-05-10T09:40:28;99102.03;;;12.48
61703;BMP280;47622;47.726;3.298;2023-05-10T09:45:29;99095.81;;;12.70
61703;BMP280;47622;47.726;3.298;2023-05-10T09:47:55;99107.94;;;13.01
61703;BMP280;47622;47.726;3.298;2023-05-10T09:50:22;99106.97;;;13.14
61703;BMP280;47622;47.726;3.298;2023-05-10T09:52:52;99103.31;;;12.98
61703;BMP280;47622;47.726;3.298;2023-05-10T09:55:20;99105.78;;;13.03
61703;BMP280;47622;47.726;3.298;2023-05-10T09:57:47;99110.38;;;13.15
61703;BMP280;47622;47.726;3.298;2023-05-10T10:00:17;99106.31;;;12.70
61703;BMP280;47622;47.726;3.298;2023-05-10T10:02:46;99106.06;;;12.37
61703;BMP280;47622;47.726;3.298;2023-05-10T10:05:12;99102.03;;;12.48
61703;BMP280;47622;47.726;3.298;2023-05-10T10:07:39;99105.91;;;12.51
61703;BMP280;47622;47.726;3.298;2023-05-10T10:10:05;99106.84;;;12.38
61703;BMP280;47622;47.726;3.298;2023-05-10T10:12:36;99110.41;;;12.25
61703;BMP280;47622;47.726;3.298;2023-05-10T10:15:03;99114.44;;;12.31
61703;BMP280;47622;47.726;3.298;2023-05-10T10:17:30;99112.28;;;12.50
61703;BMP280;47622;47.726;3.298;2023-05-10T10:19:57;99112.09;;;12.55
61703;BMP280;47622;47.726;3.298;2023-05-10T10:22:23;99113.19;;;13.01
61703;BMP280;47622;47.726;3.298;2023-05-10T10:24:50;99112.03;;;13.19
61703;BMP280;47622;47.726;3.298;2023-05-10T10:27:23;99114.72;;;13.02
61703;BMP280;47622;47.726;3.298;2023-05-10T10:35:33;99108.22;;;13.67
61703;BMP280;47622;47.726;3.298;2023-05-10T10:38:00;99125.47;;;13.26
61703;BMP280;47622;47.726;3.298;2023-05-10T10:40:33;99109.78;;;13.09
61703;BMP280;47622;47.726;3.298;2023-05-10T10:43:25;99110.69;;;13.43
61703;BMP280;47622;47.726;3.298;2023-05-10T10:48:36;99113.69;;;13.62
61703;BMP280;47622;47.726;3.298;2023-05-10T10:51:02;99114.06;;;13.72
61703;BMP280;47622;47.726;3.298;2023-05-10T10:53:28;99116.81;;;13.97
61703;BMP280;47622;47.726;3.298;2023-05-10T10:56:09;99118.59;;;13.43
61703;BMP280;47622;47.726;3.298;2023-05-10T10:58:36;99122.75;;;13.73
61703;BMP280;47622;47.726;3.298;2023-05-10T11:01:14;99120.50;;;13.63
61703;BMP280;47622;47.726;3.298;2023-05-10T11:03:41;99112.69;;;13.16
61703;BMP280;47622;47.726;3.298;2023-05-10T11:06:29;99118.63;;;13.04
61703;BMP280;47622;47.726;3.298;2023-05-10T11:08:57;99118.13;;;13.11
61703;BMP280;47622;47.726;3.298;2023-05-10T11:11:23;99119.81;;;13.07
61703;BMP280;47622;47.726;3.298;2023-05-10T11:13:48;99128.31;;;13.13
61703;BMP280;47622;47.726;3.298;2023-05-10T11:16:17;99111.72;;;12.65
61703;BMP280;47622;47.726;3.298;2023-05-10T11:19:02;99118.56;;;12.66
61703;BMP280;47622;47.726;3.298;2023-05-10T11:21:31;99119.72;;;12.95
61703;BMP280;47622;47.726;3.298;2023-05-10T11:23:59;99122.13;;;13.17
61703;BMP280;47622;47.726;3.298;2023-05-10T11:26:30;99123.03;;;13.21
61703;BMP280;47622;47.726;3.298;2023-05-10T11:28:56;99130.75;;;13.26
61703;BMP280;47622;47.726;3.298;2023-05-10T11:31:23;99117.66;;;13.09
61703;BMP280;47622;47.726;3.298;2023-05-10T11:33:57;99124.44;;;13.19
61703;BMP280;47622;47.726;3.298;2023-05-10T11:36:37;99115.91;;;13.13
61703;BMP280;47622;47.726;3.298;2023-05-10T11:39:04;99118.00;;;13.37
61703;BMP280;47622;47.726;3.298;2023-05-10T11:41:31;99128.28;;;13.80
61703;BMP280;47622;47.726;3.298;2023-05-10T11:43:57;99119.63;;;13.71
61703;BMP280;47622;47.726;3.298;2023-05-10T11:46:25;99119.28;;;13.81
61703;BMP280;47622;47.726;3.298;2023-05-10T11:48:59;99109.50;;;13.82
61703;BMP280;47622;47.726;3.298;2023-05-10T11:51:35;99121.16;;;14.01
61703;BMP280;47622;47.726;3.298;2023-05-10T11:54:05;99119.03;;;13.95
61703;BMP280;47622;47.726;3.298;2023-05-10T11:56:32;99107.94;;;14.22
61703;BMP280;47622;47.726;3.298;2023-05-10T11:58:58;99116.03;;;14.17
61703;BMP280;47622;47.726;3.298;2023-05-10T12:01:25;99101.91;;;14.34
61703;BMP280;47622;47.726;3.298;2023-05-10T12:03:52;99113.47;;;14.09
61703;BMP280;47622;47.726;3.298;2023-05-10T12:06:19;99114.09;;;14.72
61703;BMP280;47622;47.726;3.298;2023-05-10T12:08:49;99108.50;;;15.34
61703;BMP280;47622;47.726;3.298;2023-05-10T12:11:18;99108.25;;;15.91
61703;BMP280;47622;47.726;3.298;2023-05-10T12:13:46;99105.88;;;16.30
61703;BMP280;47622;47.726;3.298;2023-05-10T12:16:16;99104.44;;;15.77
61703;BMP280;47622;47.726;3.298;2023-05-10T12:18:42;99113.00;;;15.46
61703;BMP280;47622;47.726;3.298;2023-05-10T12:21:12;99110.59;;;15.28
61703;BMP280;47622;47.726;3.298;2023-05-10T12:23:39;99104.66;;;14.83
61703;BMP280;47622;47.726;3.298;2023-05-10T12:26:05;99110.75;;;14.38
61703;BMP280;47622;47.726;3.298;2023-05-10T12:28:32;99111.09;;;14.49
61703;BMP280;47622;47.726;3.298;2023-05-10T12:31:00;99105.75;;;15.18
61703;BMP280;47622;47.726;3.298;2023-05-10T12:33:26;99116.47;;;15.62
61703;BMP280;47622;47.726;3.298;2023-05-10T12:35:53;99114.41;;;15.55
61703;BMP280;47622;47.726;3.298;2023-05-10T12:38:32;99110.19;;;15.67
61703;BMP280;47622;47.726;3.298;2023-05-10T12:41:02;99105.13;;;16.02
61703;BMP280;47622;47.726;3.298;2023-05-10T12:43:28;99105.13;;;16.02
61703;BMP280;47622;47.726;3.298;2023-05-10T12:45:54;99108.41;;;15.99
61703;BMP280;47622;47.726;3.298;2023-05-10T12:48:19;99109.66;;;16.01
61703;BMP280;47622;47.726;3.298;2023-05-10T12:50:45;99106.72;;;16.34
61703;BMP280;47622;47.726;3.298;2023-05-10T12:53:13;99110.81;;;16.47
61703;BMP280;47622;47.726;3.298;2023-05-10T12:55:41;99118.72;;;16.91
61703;BMP280;47622;47.726;3.298;2023-05-10T12:58:06;99107.84;;;16.96
61703;BMP280;47622;47.726;3.298;2023-05-10T13:00:32;99105.41;;;17.22
61703;BMP280;47622;47.726;3.298;2023-05-10T13:02:57;99104.75;;;16.94
61703;BMP280;47622;47.726;3.298;2023-05-10T13:05:23;99113.09;;;17.28
61703;BMP280;47622;47.726;3.298;2023-05-10T13:07:48;99112.44;;;16.83
61703;BMP280;47622;47.726;3.298;2023-05-10T13:10:15;99113.81;;;16.93
61703;BMP280;47622;47.726;3.298;2023-05-10T13:12:41;99102.97;;;16.35
61703;BMP280;47622;47.726;3.298;2023-05-10T13:15:07;99112.28;;;17.08
61703;BMP280;47622;47.726;3.298;2023-05-10T13:17:33;99115.34;;;16.94
61703;BMP280;47622;47.726;3.298;2023-05-10T13:19:58;99104.25;;;16.57
61703;BMP280;47622;47.726;3.298;2023-05-10T13:22:24;99107.00;;;16.60
61703;BMP280;47622;47.726;3.298;2023-05-10T13:24:49;99114.63;;;17.48
61703;BMP280;47622;47.726;3.298;2023-05-10T13:27:15;99101.78;;;17.88
61703;BMP280;47622;47.726;3.298;2023-05-10T13:29:40;99096.97;;;17.36
61703;BMP280;47622;47.726;3.298;2023-05-10T13:32:06;99089.59;;;17.45
61703;BMP280;47622;47.726;3.298;2023-05-10T13:34:32;99092.56;;;17.44
61703;BMP280;47622;47.726;3.298;2023-05-10T13:36:57;99091.19;;;17.15
61703;BMP280;47622;47.726;3.298;2023-05-10T13:39:23;99085.19;;;16.83
61703;BMP280;47622;47.726;3.298;2023-05-10T13:41:49;99085.09;;;15.88
61703;BMP280;47622;47.726;3.298;2023-05-10T13:44:14;99086.16;;;16.00
61703;BMP280;47622;47.726;3.298;2023-05-10T13:46:41;99097.44;;;15.97
61703;BMP280;47622;47.726;3.298;2023-05-10T13:49:08;99114.34;;;15.27
61703;BMP280;47622;47.726;3.298;2023-05-10T13:51:34;99104.16;;;14.44
61703;BMP280;47622;47.726;3.298;2023-05-10T13:54:01;99115.47;;;13.91
61703;BMP280;47622;47.726;3.298;2023-05-10T13:56:27;99113.88;;;13.57
61703;BMP280;47622;47.726;3.298;2023-05-10T13:58:52;99112.72;;;13.87
61703;BMP280;47622;47.726;3.298;2023-05-10T14:01:18;99111.78;;;13.41
61703;BMP280;47622;47.726;3.298;2023-05-10T14:03:44;99111.66;;;13.59
61703;BMP280;47622;47.726;3.298;2023-05-10T14:06:09;99101.03;;;13.76
61703;BMP280;47622;47.726;3.298;2023-05-10T14:08:35;99092.00;;;13.77
61703;BMP280;47622;47.726;3.298;2023-05-10T14:11:02;99097.22;;;13.86
61703;BMP280;47622;47.726;3.298;2023-05-10T14:13:29;99089.59;;;13.72
61703;BMP280;47622;47.726;3.298;2023-05-10T14:15:55;99084.97;;;13.69
61703;BMP280;47622;47.726;3.298;2023-05-10T14:18:21;99093.09;;;13.97
61703;BMP280;47622;47.726;3.298;2023-05-10T14:20:48;99085.47;;;14.49
61703;BMP280;47622;47.726;3.298;2023-05-10T14:23:14;99078.50;;;14.90
61703;BMP280;47622;47.726;3.298;2023-05-10T14:25:42;99071.88;;;15.20
61703;BMP280;47622;47.726;3.298;2023-05-10T14:28:09;99071.53;;;15.62
61703;BMP280;47622;47.726;3.298;2023-05-10T14:30:34;99064.22;;;15.99
61703;BMP280;47622;47.726;3.298;2023-05-10T14:33:01;99062.25;;;16.24
61703;BMP280;47622;47.726;3.298;2023-05-10T14:35:28;99060.63;;;16.35